createdAt,value
2019-01-30T00:00:29.655Z,1.10
2019-01-30T00:03:01.135Z,1.10
2019-01-30T00:05:32.211Z,1.10
2019-01-30T00:08:03.762Z,1.10
2019-01-30T00:10:35.032Z,1.00
2019-01-30T00:13:06.745Z,1.00
2019-01-30T00:15:38.030Z,1.00
2019-01-30T00:18:09.142Z,0.90
2019-01-30T00:20:40.415Z,0.90
2019-01-30T00:23:11.878Z,1.00
2019-01-30T00:25:42.953Z,1.00
2019-01-30T00:28:13.919Z,0.90
2019-01-30T00:30:45.276Z,0.90
2019-01-30T00:33:16.421Z,0.90
2019-01-30T00:35:47.621Z,0.90
2019-01-30T00:38:18.939Z,0.90
2019-01-30T00:40:50.382Z,0.90
2019-01-30T00:43:21.853Z,0.90
2019-01-30T00:45:53.046Z,0.90
2019-01-30T00:48:24.274Z,0.80
2019-01-30T00:50:55.654Z,0.90
2019-01-30T00:53:26.859Z,0.90
2019-01-30T00:55:58.132Z,1.00
2019-01-30T00:58:29.738Z,1.00
2019-01-30T01:01:01.011Z,1.00
2019-01-30T01:03:33.728Z,1.10
2019-01-30T01:06:09.643Z,1.10
2019-01-30T01:08:40.994Z,1.10
2019-01-30T01:11:14.805Z,1.00
2019-01-30T01:13:46.082Z,1.00
2019-01-30T01:16:17.350Z,1.00
2019-01-30T01:18:48.649Z,1.00
2019-01-30T01:21:19.918Z,1.00
2019-01-30T01:23:51.370Z,1.00
2019-01-30T01:26:22.650Z,1.00
2019-01-30T01:28:53.609Z,1.00
2019-01-30T01:31:24.961Z,1.00
2019-01-30T01:33:56.503Z,0.90
2019-01-30T01:36:27.786Z,0.90
2019-01-30T01:38:59.007Z,0.90
2019-01-30T01:41:29.967Z,0.90
2019-01-30T01:44:00.938Z,0.90
2019-01-30T01:46:32.134Z,0.90
2019-01-30T01:49:04.918Z,0.80
2019-01-30T01:51:35.938Z,0.80
2019-01-30T01:54:06.906Z,0.80
2019-01-30T01:56:38.114Z,0.70
2019-01-30T01:59:09.494Z,0.70
2019-01-30T02:01:40.506Z,0.70
2019-01-30T02:04:11.785Z,0.70
2019-01-30T02:06:43.054Z,0.70
2019-01-30T02:09:15.310Z,0.60
2019-01-30T02:11:46.870Z,0.60
2019-01-30T02:14:18.666Z,0.60
2019-01-30T02:16:49.947Z,0.50
2019-01-30T02:19:21.157Z,0.50
2019-01-30T02:21:52.702Z,0.50
2019-01-30T02:24:24.046Z,0.50
2019-01-30T02:26:55.254Z,0.40
2019-01-30T02:29:26.214Z,0.40
2019-01-30T02:31:57.242Z,0.40
2019-01-30T02:34:28.678Z,0.40
2019-01-30T02:36:59.882Z,0.40
2019-01-30T02:39:31.110Z,0.40
2019-01-30T02:42:02.398Z,0.40
2019-01-30T02:44:33.417Z,0.40
2019-01-30T02:47:04.690Z,0.40
2019-01-30T02:49:35.902Z,0.40
2019-01-30T02:52:07.388Z,0.40
2019-01-30T02:54:38.614Z,0.40
2019-01-30T02:57:09.826Z,0.40
2019-01-30T02:59:40.798Z,0.40
2019-01-30T03:02:18.815Z,0.40
2019-01-30T03:04:51.212Z,0.40
2019-01-30T03:07:22.173Z,0.40
2019-01-30T03:09:53.631Z,0.40
2019-01-30T03:12:25.069Z,0.40
2019-01-30T03:14:56.277Z,0.40
2019-01-30T03:17:27.589Z,0.40
2019-01-30T03:19:58.914Z,0.40
2019-01-30T03:22:30.178Z,0.40
2019-01-30T03:25:01.217Z,0.40
2019-01-30T03:27:32.169Z,0.40
2019-01-30T03:30:03.524Z,0.40
2019-01-30T03:32:34.604Z,0.40
2019-01-30T03:35:06.354Z,0.40
2019-01-30T03:37:37.571Z,0.40
2019-01-30T03:40:10.439Z,0.40
2019-01-30T03:42:42.518Z,0.40
2019-01-30T03:45:16.159Z,0.40
2019-01-30T03:47:47.713Z,0.40
2019-01-30T03:50:19.361Z,0.40
2019-01-30T03:52:50.378Z,0.40
2019-01-30T03:55:22.026Z,0.40
2019-01-30T03:57:53.038Z,0.40
2019-01-30T04:00:25.440Z,0.40
2019-01-30T04:02:56.774Z,0.40
2019-01-30T04:05:28.083Z,0.40
2019-01-30T04:07:59.802Z,0.40
2019-01-30T04:10:30.909Z,0.40
2019-01-30T04:13:02.175Z,0.40
2019-01-30T04:15:33.277Z,0.40
2019-01-30T04:18:04.742Z,0.40
2019-01-30T04:20:36.026Z,0.40
2019-01-30T04:23:07.322Z,0.40
2019-01-30T04:25:38.552Z,0.50
2019-01-30T04:28:09.570Z,0.50
2019-01-30T04:30:41.126Z,0.50
2019-01-30T04:33:12.350Z,0.50
2019-01-30T04:35:43.738Z,0.50
2019-01-30T04:38:15.186Z,0.50
2019-01-30T04:40:46.163Z,0.50
2019-01-30T04:43:17.362Z,0.50
2019-01-30T04:45:48.585Z,0.50
2019-01-30T04:48:19.538Z,0.50
2019-01-30T04:50:50.762Z,0.50
2019-01-30T04:53:21.951Z,0.50
2019-01-30T04:55:53.239Z,0.50
2019-01-30T04:58:24.458Z,0.50
2019-01-30T05:00:55.762Z,0.50
2019-01-30T05:03:28.672Z,0.50
2019-01-30T05:06:00.121Z,0.50
2019-01-30T05:08:31.334Z,0.50
2019-01-30T05:11:02.295Z,0.50
2019-01-30T05:13:33.506Z,0.60
2019-01-30T05:16:04.794Z,0.60
2019-01-30T05:18:36.334Z,0.60
2019-01-30T05:21:07.554Z,0.60
2019-01-30T05:23:38.750Z,0.60
2019-01-30T05:26:09.855Z,0.60
2019-01-30T05:28:41.117Z,0.60
2019-01-30T05:31:12.622Z,0.60
2019-01-30T05:33:44.082Z,0.60
2019-01-30T05:36:16.818Z,0.60
2019-01-30T05:38:48.023Z,0.60
2019-01-30T05:41:19.318Z,0.60
2019-01-30T05:43:50.586Z,0.60
2019-01-30T05:46:21.869Z,0.60
2019-01-30T05:48:52.811Z,0.60
2019-01-30T05:51:24.020Z,0.60
2019-01-30T05:53:55.223Z,0.60
2019-01-30T05:56:26.500Z,0.60
2019-01-30T05:58:57.508Z,0.60
2019-01-30T06:01:28.606Z,0.60
2019-01-30T06:04:01.115Z,0.60
2019-01-30T06:06:32.328Z,0.60
2019-01-30T06:09:05.165Z,0.60
2019-01-30T06:11:36.711Z,0.60
2019-01-30T06:14:07.987Z,0.60
2019-01-30T06:16:39.762Z,0.60
2019-01-30T06:19:11.030Z,0.60
2019-01-30T06:21:42.236Z,0.60
2019-01-30T06:24:13.453Z,0.60
2019-01-30T06:26:45.567Z,0.60
2019-01-30T06:29:16.756Z,0.60
2019-01-30T06:31:48.074Z,0.50
2019-01-30T06:34:19.278Z,0.50
2019-01-30T06:36:50.686Z,0.50
2019-01-30T06:39:21.971Z,0.60
2019-01-30T06:41:52.940Z,0.60
2019-01-30T06:44:24.210Z,0.60
2019-01-30T06:46:55.226Z,0.50
2019-01-30T06:49:26.419Z,0.50
2019-01-30T06:51:57.831Z,0.50
2019-01-30T06:54:29.111Z,0.40
2019-01-30T06:57:00.559Z,0.40
2019-01-30T06:59:32.023Z,0.40
2019-01-30T07:02:03.635Z,0.50
2019-01-30T07:04:35.419Z,0.50
2019-01-30T07:07:06.799Z,0.50
2019-01-30T07:09:38.308Z,0.50
2019-01-30T07:12:09.730Z,0.50
2019-01-30T07:14:41.462Z,0.50
2019-01-30T07:17:12.908Z,0.50
2019-01-30T07:19:44.131Z,0.50
2019-01-30T07:22:15.242Z,0.50
2019-01-30T07:24:46.390Z,0.50
2019-01-30T07:27:18.999Z,0.40
2019-01-30T07:29:50.447Z,0.40
2019-01-30T07:32:21.780Z,0.40
2019-01-30T07:34:53.032Z,0.40
2019-01-30T07:37:25.451Z,0.40
2019-01-30T07:39:56.739Z,0.50
2019-01-30T07:42:28.158Z,0.50
2019-01-30T07:44:59.831Z,0.50
2019-01-30T07:47:31.234Z,0.50
2019-01-30T07:50:02.589Z,0.50
2019-01-30T07:52:34.028Z,0.50
2019-01-30T07:55:06.330Z,0.50
2019-01-30T07:57:37.806Z,0.50
2019-01-30T08:00:30.439Z,0.50
2019-01-30T08:03:01.976Z,0.50
2019-01-30T08:05:33.359Z,0.60
2019-01-30T08:08:05.979Z,0.60
2019-01-30T08:10:37.082Z,0.70
2019-01-30T08:13:08.367Z,0.70
2019-01-30T08:15:40.910Z,0.70
2019-01-30T08:18:12.348Z,0.70
2019-01-30T08:20:43.698Z,0.80
2019-01-30T08:23:15.069Z,0.80
2019-01-30T08:25:47.694Z,0.80
2019-01-30T08:28:19.412Z,0.80
2019-01-30T08:30:50.983Z,0.80
2019-01-30T08:33:22.238Z,0.90
2019-01-30T08:35:53.534Z,0.90
2019-01-30T08:38:25.170Z,0.90
2019-01-30T08:40:56.386Z,0.90
2019-01-30T08:43:27.906Z,1.00
2019-01-30T08:45:59.118Z,1.00
2019-01-30T08:48:30.315Z,1.00
2019-01-30T08:51:01.562Z,1.00
2019-01-30T08:53:32.874Z,1.00
2019-01-30T08:56:04.435Z,1.10
2019-01-30T08:58:35.998Z,1.10
2019-01-30T09:01:07.442Z,1.10
2019-01-30T09:03:40.144Z,1.10
2019-01-30T09:06:11.603Z,1.20
2019-01-30T09:08:42.820Z,1.30
2019-01-30T09:11:14.037Z,1.30
2019-01-30T09:13:45.426Z,1.40
2019-01-30T09:16:16.412Z,1.30
2019-01-30T09:18:47.918Z,1.30
2019-01-30T09:21:19.230Z,1.40
2019-01-30T09:23:50.439Z,1.40
2019-01-30T09:26:23.340Z,1.50
2019-01-30T09:28:54.562Z,1.50
2019-01-30T09:31:26.726Z,1.60
2019-01-30T09:33:58.017Z,1.60
2019-01-30T09:36:29.207Z,1.60
2019-01-30T09:39:00.523Z,1.60
2019-01-30T09:41:31.748Z,1.70
2019-01-30T09:44:03.064Z,1.70
2019-01-30T09:46:34.376Z,1.70
2019-01-30T09:49:05.493Z,1.70
2019-01-30T09:51:38.348Z,1.70
2019-01-30T09:54:09.458Z,1.70
2019-01-30T09:56:40.479Z,1.80
2019-01-30T09:59:11.526Z,1.80
2019-01-30T10:01:42.722Z,1.80
2019-01-30T10:04:14.224Z,1.80
2019-01-30T10:06:45.427Z,1.80
2019-01-30T10:09:16.946Z,1.90
2019-01-30T10:11:48.214Z,1.90
2019-01-30T10:14:19.875Z,2.00
2019-01-30T10:16:51.150Z,2.00
2019-01-30T10:19:22.390Z,2.10
2019-01-30T10:21:53.590Z,2.20
2019-01-30T10:24:24.931Z,2.20
2019-01-30T10:26:56.758Z,2.30
2019-01-30T10:29:28.034Z,2.30
2019-01-30T10:32:00.038Z,2.40
2019-01-30T10:34:31.254Z,2.40
2019-01-30T10:37:03.755Z,2.40
2019-01-30T10:39:34.946Z,2.40
2019-01-30T10:42:06.299Z,2.50
2019-01-30T10:44:37.702Z,2.50
2019-01-30T10:47:08.655Z,2.50
2019-01-30T10:49:39.850Z,2.50
2019-01-30T10:52:11.067Z,2.60
2019-01-30T10:54:42.363Z,2.70
2019-01-30T10:57:13.715Z,2.70
2019-01-30T10:59:45.235Z,2.70
2019-01-30T11:02:16.651Z,2.70
2019-01-30T11:04:48.008Z,2.80
2019-01-30T11:07:19.210Z,2.80
2019-01-30T11:09:50.450Z,3.00
2019-01-30T11:12:21.727Z,3.10
2019-01-30T11:14:53.351Z,3.20
2019-01-30T11:17:25.174Z,3.30
2019-01-30T11:19:56.727Z,3.20
2019-01-30T11:22:27.914Z,3.20
2019-01-30T11:24:59.294Z,3.40
2019-01-30T11:27:30.838Z,3.50
2019-01-30T11:30:01.801Z,3.60
2019-01-30T11:32:33.094Z,3.70
2019-01-30T11:35:04.977Z,3.80
2019-01-30T11:37:36.507Z,3.80
2019-01-30T11:40:09.459Z,3.80
2019-01-30T11:42:40.730Z,3.80
2019-01-30T11:45:18.018Z,3.80
2019-01-30T11:47:49.589Z,3.80
2019-01-30T11:50:20.723Z,3.80
2019-01-30T11:52:52.081Z,3.80
2019-01-30T11:55:23.416Z,3.90
2019-01-30T11:57:54.749Z,3.90
2019-01-30T12:00:29.644Z,3.90
2019-01-30T12:03:02.406Z,3.90
2019-01-30T12:05:33.805Z,4.00
2019-01-30T12:08:07.213Z,4.00
2019-01-30T12:10:38.729Z,4.00
2019-01-30T12:13:09.782Z,4.00
2019-01-30T12:15:40.926Z,4.10
2019-01-30T12:18:13.078Z,4.10
2019-01-30T12:20:45.421Z,4.20
2019-01-30T12:23:17.577Z,4.10
2019-01-30T12:25:48.618Z,4.10
2019-01-30T12:28:20.266Z,4.10
2019-01-30T12:30:53.270Z,4.00
2019-01-30T12:33:26.013Z,4.00
2019-01-30T12:35:57.970Z,3.90
2019-01-30T12:38:28.950Z,3.90
2019-01-30T12:41:00.882Z,3.90
2019-01-30T12:43:32.447Z,3.90
2019-01-30T12:46:03.663Z,3.90
2019-01-30T12:48:34.762Z,3.90
2019-01-30T12:51:05.793Z,4.00
2019-01-30T12:53:37.928Z,4.00
2019-01-30T12:56:09.342Z,4.00
2019-01-30T12:58:40.307Z,4.10
2019-01-30T13:01:12.434Z,4.10
2019-01-30T13:03:43.654Z,4.10
2019-01-30T13:06:17.829Z,4.20
2019-01-30T13:08:49.051Z,4.20
2019-01-30T13:11:21.442Z,4.20
2019-01-30T13:13:53.171Z,4.20
2019-01-30T13:16:24.314Z,4.20
2019-01-30T13:18:55.803Z,4.20
2019-01-30T13:21:27.347Z,4.20
2019-01-30T13:23:58.582Z,4.20
2019-01-30T13:26:31.017Z,4.20
2019-01-30T13:29:01.982Z,4.20
2019-01-30T13:31:33.102Z,4.30
2019-01-30T13:34:04.397Z,4.20
2019-01-30T13:36:35.887Z,4.20
2019-01-30T13:39:08.662Z,4.20
2019-01-30T13:41:42.740Z,4.20
2019-01-30T13:44:14.046Z,4.10
2019-01-30T13:46:45.226Z,4.10
2019-01-30T13:49:16.284Z,4.20
2019-01-30T13:51:47.874Z,4.10
2019-01-30T13:54:18.966Z,4.10
2019-01-30T13:56:50.275Z,4.10
2019-01-30T13:59:21.820Z,4.10
2019-01-30T14:01:52.911Z,4.10
2019-01-30T14:04:24.007Z,4.10
2019-01-30T14:06:55.489Z,4.00
2019-01-30T14:09:27.205Z,4.00
2019-01-30T14:11:58.951Z,4.10
2019-01-30T14:14:31.724Z,4.00
2019-01-30T14:17:03.130Z,3.90
2019-01-30T14:19:34.219Z,3.80
2019-01-30T14:22:05.752Z,3.80
2019-01-30T14:24:37.034Z,3.70
2019-01-30T14:27:08.471Z,3.70
2019-01-30T14:29:39.520Z,3.70
2019-01-30T14:32:10.849Z,3.70
2019-01-30T14:34:42.329Z,3.80
2019-01-30T14:37:13.815Z,3.70
2019-01-30T14:39:45.263Z,3.70
2019-01-30T14:42:17.331Z,3.60
2019-01-30T14:44:48.678Z,3.60
2019-01-30T14:47:19.956Z,3.60
2019-01-30T14:49:51.432Z,3.60
2019-01-30T14:52:22.707Z,3.50
2019-01-30T14:54:54.047Z,3.60
2019-01-30T14:57:25.146Z,3.50
2019-01-30T14:59:56.346Z,3.50
2019-01-30T15:02:27.734Z,3.40
2019-01-30T15:04:58.702Z,3.20
2019-01-30T15:07:29.649Z,3.10
2019-01-30T15:10:00.927Z,3.00
2019-01-30T15:12:32.042Z,3.00
2019-01-30T15:15:03.336Z,2.90
2019-01-30T15:17:34.446Z,2.80
2019-01-30T15:20:09.069Z,2.80
2019-01-30T15:22:40.287Z,2.70
2019-01-30T15:25:12.722Z,2.70
2019-01-30T15:27:44.022Z,2.60
2019-01-30T15:30:20.791Z,2.60
2019-01-30T15:32:52.472Z,2.50
2019-01-30T15:35:33.315Z,2.50
2019-01-30T15:37:57.070Z,2.50
2019-01-30T15:40:28.572Z,2.50
2019-01-30T15:43:00.268Z,2.50
2019-01-30T15:45:31.755Z,2.60
2019-01-30T15:48:03.117Z,2.50
2019-01-30T15:50:35.115Z,2.50
2019-01-30T15:53:09.667Z,2.40
2019-01-30T15:55:41.014Z,2.40
2019-01-30T15:58:12.744Z,2.40
2019-01-30T16:00:53.358Z,2.40
2019-01-30T16:03:24.654Z,2.30
2019-01-30T16:05:55.981Z,2.30
2019-01-30T16:08:27.303Z,2.30
2019-01-30T16:10:58.282Z,2.20
2019-01-30T16:13:29.592Z,2.30
2019-01-30T16:16:02.879Z,2.30
2019-01-30T16:18:34.155Z,2.40
2019-01-30T16:21:05.526Z,2.50
2019-01-30T16:23:36.810Z,2.50
2019-01-30T16:26:09.353Z,2.50
2019-01-30T16:28:40.763Z,2.50
2019-01-30T16:31:11.956Z,2.50
2019-01-30T16:33:43.977Z,2.50
2019-01-30T16:36:16.596Z,2.50
2019-01-30T16:38:48.114Z,2.50
2019-01-30T16:41:19.659Z,2.50
2019-01-30T16:43:51.000Z,2.40
2019-01-30T16:46:22.737Z,2.40
2019-01-30T16:48:53.682Z,2.40
2019-01-30T16:51:24.737Z,2.40
2019-01-30T16:53:57.382Z,2.50
2019-01-30T16:56:28.995Z,2.40
2019-01-30T16:59:00.271Z,2.40
2019-01-30T17:01:31.550Z,2.40
2019-01-30T17:04:03.111Z,2.30
2019-01-30T17:06:34.334Z,2.30
2019-01-30T17:09:08.179Z,2.30
2019-01-30T17:11:39.986Z,2.30
2019-01-30T17:14:11.070Z,2.30
2019-01-30T17:16:42.435Z,2.30
2019-01-30T17:19:13.662Z,2.30
2019-01-30T17:21:44.782Z,2.40
2019-01-30T17:24:18.394Z,2.30
2019-01-30T17:26:49.366Z,2.30
2019-01-30T17:29:22.703Z,2.30
2019-01-30T17:31:53.249Z,2.30
2019-01-30T17:34:24.823Z,2.30
2019-01-30T17:36:56.573Z,2.30
2019-01-30T17:39:27.867Z,2.30
2019-01-30T17:41:59.158Z,2.30
2019-01-30T17:44:32.400Z,2.30
2019-01-30T17:47:03.542Z,2.20
2019-01-30T17:49:34.773Z,2.10
2019-01-30T17:52:06.163Z,2.10
2019-01-30T17:54:38.063Z,2.00
2019-01-30T17:57:09.414Z,1.90
2019-01-30T17:59:49.826Z,1.80
2019-01-30T18:02:21.426Z,1.80
2019-01-30T18:04:53.014Z,1.70
2019-01-30T18:07:24.659Z,1.60
2019-01-30T18:09:55.955Z,1.60
2019-01-30T18:12:27.381Z,1.60
2019-01-30T18:14:59.283Z,1.50
2019-01-30T18:17:31.621Z,1.50
2019-01-30T18:20:02.990Z,1.50
2019-01-30T18:22:34.323Z,1.50
2019-01-30T18:25:06.300Z,1.50
2019-01-30T18:27:37.604Z,1.50
2019-01-30T18:30:11.541Z,1.50
2019-01-30T18:32:44.139Z,1.50
2019-01-30T18:35:15.565Z,1.50
2019-01-30T18:37:48.275Z,1.50
2019-01-30T18:40:21.059Z,1.50
2019-01-30T18:42:52.658Z,1.50
2019-01-30T18:45:25.130Z,1.40
2019-01-30T18:47:56.461Z,1.40
2019-01-30T18:50:27.746Z,1.50
2019-01-30T18:52:59.138Z,1.50
2019-01-30T18:55:31.155Z,1.60
2019-01-30T18:58:02.588Z,1.60
2019-01-30T19:00:43.406Z,1.60
2019-01-30T19:03:20.350Z,1.70
2019-01-30T19:05:51.788Z,1.70
2019-01-30T19:08:23.067Z,1.60
2019-01-30T19:10:54.053Z,1.60
2019-01-30T19:13:25.546Z,1.60
2019-01-30T19:15:56.818Z,1.60
2019-01-30T19:18:28.162Z,1.60
2019-01-30T19:21:01.170Z,1.60
2019-01-30T19:23:32.627Z,1.60
2019-01-30T19:26:05.099Z,1.60
2019-01-30T19:28:36.769Z,1.60
2019-01-30T19:31:08.594Z,1.60
2019-01-30T19:33:39.715Z,1.60
2019-01-30T19:36:10.799Z,1.70
2019-01-30T19:38:43.097Z,1.70
2019-01-30T19:41:14.355Z,1.70
2019-01-30T19:43:45.450Z,1.70
2019-01-30T19:46:17.450Z,1.80
2019-01-30T19:48:48.400Z,1.80
2019-01-30T19:51:22.444Z,1.70
2019-01-30T19:53:53.533Z,1.70
2019-01-30T19:56:24.594Z,1.70
2019-01-30T19:58:56.638Z,1.70
2019-01-30T20:01:35.988Z,1.70
2019-01-30T20:04:00.682Z,1.70
2019-01-30T20:06:31.974Z,1.70
2019-01-30T20:09:06.358Z,1.60
2019-01-30T20:11:44.978Z,1.70
2019-01-30T20:14:16.267Z,1.70
2019-01-30T20:16:47.719Z,1.70
2019-01-30T20:19:18.850Z,1.80
2019-01-30T20:21:50.382Z,1.90
2019-01-30T20:24:21.566Z,1.90
2019-01-30T20:26:52.815Z,2.00
2019-01-30T20:29:24.125Z,2.00
2019-01-30T20:31:55.598Z,2.00
2019-01-30T20:34:26.874Z,2.00
2019-01-30T20:37:00.071Z,2.00
2019-01-30T20:39:31.168Z,2.00
2019-01-30T20:42:02.394Z,1.90
2019-01-30T20:44:34.003Z,2.00
2019-01-30T20:47:05.742Z,1.90
2019-01-30T20:49:36.726Z,1.90
2019-01-30T20:52:07.842Z,1.90
2019-01-30T20:54:39.203Z,1.90
2019-01-30T20:57:10.346Z,1.80
2019-01-30T20:59:41.667Z,1.90
2019-01-30T21:02:13.043Z,1.80
2019-01-30T21:04:44.379Z,1.80
2019-01-30T21:07:15.342Z,1.80
2019-01-30T21:09:46.554Z,1.80
2019-01-30T21:12:18.851Z,1.80
2019-01-30T21:14:50.139Z,1.80
2019-01-30T21:17:21.374Z,1.80
2019-01-30T21:19:52.662Z,1.90
2019-01-30T21:22:23.890Z,1.90
2019-01-30T21:24:55.110Z,1.90
2019-01-30T21:27:26.344Z,1.80
2019-01-30T21:29:57.562Z,1.80
2019-01-30T21:32:28.858Z,1.90
2019-01-30T21:35:00.096Z,1.90
2019-01-30T21:37:31.669Z,1.80
2019-01-30T21:40:02.961Z,1.80
2019-01-30T21:42:34.251Z,1.80
2019-01-30T21:45:06.519Z,1.80
2019-01-30T21:47:37.774Z,1.80
2019-01-30T21:50:09.992Z,1.80
2019-01-30T21:52:41.502Z,1.80
2019-01-30T21:55:19.386Z,1.80
2019-01-30T21:57:50.406Z,1.70
2019-01-30T22:00:23.925Z,1.70
2019-01-30T22:02:55.343Z,1.70
2019-01-30T22:05:27.227Z,1.70
2019-01-30T22:08:01.017Z,1.70
2019-01-30T22:10:31.870Z,1.60
2019-01-30T22:13:03.107Z,1.70
2019-01-30T22:15:34.478Z,1.60
2019-01-30T22:18:05.774Z,1.60
2019-01-30T22:20:37.070Z,1.60
2019-01-30T22:23:08.726Z,1.70
2019-01-30T22:25:40.085Z,1.60
2019-01-30T22:28:11.330Z,1.60
2019-01-30T22:30:43.534Z,1.60
2019-01-30T22:33:16.162Z,1.60
2019-01-30T22:35:47.451Z,1.50
2019-01-30T22:38:18.676Z,1.50
2019-01-30T22:40:49.975Z,1.50
2019-01-30T22:43:21.187Z,1.50
2019-01-30T22:45:52.207Z,1.50
2019-01-30T22:48:23.534Z,1.50
2019-01-30T22:50:56.426Z,1.50
2019-01-30T22:53:27.806Z,1.50
2019-01-30T22:55:59.085Z,1.50
2019-01-30T22:58:31.745Z,1.50
2019-01-30T23:01:23.186Z,1.50
2019-01-30T23:04:22.119Z,1.50
2019-01-30T23:07:19.314Z,1.40
2019-01-30T23:10:36.298Z,1.40
2019-01-30T23:13:29.137Z,1.40
2019-01-30T23:16:26.626Z,1.40
2019-01-30T23:19:22.114Z,1.30
2019-01-30T23:22:50.015Z,1.30
2019-01-30T23:25:42.338Z,1.30
2019-01-30T23:28:26.943Z,1.40
2019-01-30T23:31:25.473Z,1.40
2019-01-30T23:34:29.858Z,1.30
2019-01-30T23:37:21.427Z,1.30
2019-01-30T23:40:14.544Z,1.30
2019-01-30T23:43:17.693Z,1.30
2019-01-30T23:46:14.522Z,1.40
2019-01-30T23:49:30.579Z,1.30
2019-01-30T23:52:43.830Z,1.40
2019-01-30T23:55:29.529Z,1.30
2019-01-30T23:58:45.238Z,1.30
